Aérodrome :
LOGIN :

S'inscrire | Disclaimer

   EN    FR    IT 

 










Légende :    VFR   VFR Marginal   IFR   IFR Intensif   IFR Très Intensif
Visi : 
Plafond : 
>= 8 km
>= 3000ft
5 à 8 km
1000 à 3000 ft
1500m à 5 km
500 à 1000 ft
800 à 1500m
200 à 500 ft
< 800m
< 200 ft
Symboles :   Orages  Brouillard  Fortes neiges  Fortes précipitations  Vent > 20 kt
SIGMETs :   Divers  Orages  Givrage  Turbulence  Onde Orograph.  Cendres Volcan.







- Altitude de l'aérodrome : 1197 ft
- Code IATA : SPM


ETAD - Spangdahlem Ab

DERNIER METAR :
  • 191326Z AUTO 26012KT 9999 BKN015 OVC023 04/02 A3010 RMK AO2 CIG 014 RWY05 SLP197 TSNO $

METARs EXPIRÉS :
  • 191256Z AUTO 25008KT 9999 BKN014 OVC019 04/02 A3009 RMK AO2 DZB12E14RAB14E25 CIG 011V017 SLP193 P0000 T00430022 TSNO $
  • 191225Z AUTO 26007KT 9999 OVC011 04/02 A3010 RMK AO2 DZB12E14RAB14E25 SLP197 TSNO $
  • 191212Z AUTO 26008KT 9999 -DZ OVC011 04/02 A3010 RMK AO2 DZB12 SLP197 TSNO $
  • 191201Z AUTO 25009KT 9999 BKN010 OVC014 04/02 A3009 RMK AO2 SLP193 TSNO $
  • 191156Z AUTO 25008KT 9999 OVC009 04/02 A3009 RMK AO2 RAB18E28 SLP193 P0000 60000 70013 T00390019 10040 20014 51009 TSNO $
  • 191148Z AUTO 25008KT 9999 OVC009 04/02 A3009 RMK AO2 RAB18E28 CIG 009V011 SLP193 TSNO $
  • 191128Z AUTO 25009KT 9999 OVC012 04/02 A3009 RMK AO2 RAB18E28 CIG 011 RWY05 SLP193 TSNO $
  • 191118Z AUTO 25007KT 9999 -RA OVC013 04/02 A3009 RMK AO2 RAB18 SLP193 TSNO $
  • 191056Z AUTO 25009KT 9999 OVC011 03/02 A3009 RMK AO2 RAB13E39 SLP195 P0000 T00340018 TSNO $

TAF AMD TAF ETAD
Valide du 19 à 13h jusqu'au 20 à 17h UTC


191322Z 1913/2017 25012KT 9999 BKN015 620309 621203 QNH3010INS
BECMG 1913/1914 25012KT 9999 BKN020 620309 621203 QNH3010INS
BECMG 2002/2003 24009KT 9999 FEW015 SCT100 QNH3008INS
BECMG 2011/2012 24012KT 8000 -RA BKN015 620309 621203 QNH2999INS
TEMPO 2013/2017 24012G20KT TX05/1914Z TNM03/2004Z
Pas de NOTAMs connus pour ce terrain.



MET'MAP, la Météo Aéronautique d'un coup d'oeil ! - Copyright ORBIFLY Décembre 2007 - Disclaimer

ORBIFLY MET'MAP TEAM :

Programmation & Développement : Alexandra Zaïnal
Conception & Développement : Baudouin d'Aumeries
Co-Programmation & Développement : Marc-Olivier Méhu
Soutien technique & logistique : Manuel Goepfert

Contact : metmap@orbifly.com




SOURCES & CREDITS :

   NOAA